createdAt,value
2022-10-21T00:00:57.916Z,10.80
2022-10-21T00:03:27.341Z,10.80
2022-10-21T00:05:55.529Z,10.80
2022-10-21T00:08:24.103Z,10.80
2022-10-21T00:10:54.609Z,10.70
2022-10-21T00:13:23.222Z,10.70
2022-10-21T00:16:00.377Z,10.70
2022-10-21T00:18:28.879Z,10.70
2022-10-21T00:20:57.145Z,10.70
2022-10-21T00:23:25.288Z,10.70
2022-10-21T00:25:58.767Z,10.70
2022-10-21T00:28:27.589Z,10.80
2022-10-21T00:30:57.997Z,10.80
2022-10-21T00:33:28.026Z,10.90
2022-10-21T00:35:58.161Z,10.90
2022-10-21T00:38:26.913Z,10.90
2022-10-21T00:40:55.081Z,10.90
2022-10-21T00:43:25.106Z,10.90
2022-10-21T00:45:58.953Z,10.90
2022-10-21T00:48:33.892Z,11.00
2022-10-21T00:51:06.606Z,10.90
2022-10-21T00:53:37.609Z,11.00
2022-10-21T00:56:14.109Z,11.00
2022-10-21T00:58:47.959Z,11.10
2022-10-21T01:01:19.249Z,11.00
2022-10-21T01:03:50.411Z,11.00
2022-10-21T01:06:21.542Z,11.00
2022-10-21T01:08:49.809Z,11.00
2022-10-21T01:11:20.779Z,11.00
2022-10-21T01:14:02.453Z,10.90
2022-10-21T01:16:42.153Z,10.90
2022-10-21T01:19:37.279Z,11.00
2022-10-21T01:22:22.444Z,11.10
2022-10-21T01:25:05.470Z,11.10
2022-10-21T01:27:46.393Z,11.10
2022-10-21T01:30:37.728Z,11.10
2022-10-21T01:33:36.441Z,11.20
2022-10-21T01:36:15.792Z,11.20
2022-10-21T01:38:51.350Z,11.10
2022-10-21T01:41:26.081Z,11.00
2022-10-21T01:43:59.514Z,11.00
2022-10-21T01:46:34.467Z,11.00
2022-10-21T01:49:08.922Z,10.90
2022-10-21T01:51:38.543Z,11.00
2022-10-21T01:54:10.892Z,11.00
2022-10-21T01:56:41.894Z,11.00
2022-10-21T01:59:12.685Z,11.10
2022-10-21T02:01:44.072Z,11.10
2022-10-21T02:04:14.699Z,11.10
2022-10-21T02:06:42.727Z,11.10
2022-10-21T02:09:10.911Z,11.10
2022-10-21T02:11:41.291Z,11.10
2022-10-21T02:14:14.604Z,11.10
2022-10-21T02:16:45.406Z,11.10
2022-10-21T02:19:17.447Z,11.10
2022-10-21T02:21:47.819Z,11.10
2022-10-21T02:24:21.557Z,11.10
2022-10-21T02:26:49.778Z,11.20
2022-10-21T02:29:23.430Z,11.20
2022-10-21T02:32:03.328Z,11.20
2022-10-21T02:34:42.230Z,11.20
2022-10-21T02:37:19.330Z,11.20
2022-10-21T02:39:52.166Z,11.30
2022-10-21T02:42:26.359Z,11.20
2022-10-21T02:44:54.665Z,11.30
2022-10-21T02:47:26.533Z,11.30
2022-10-21T02:49:54.556Z,11.30
2022-10-21T02:52:22.826Z,11.40
2022-10-21T02:54:50.903Z,11.40
2022-10-21T02:57:18.893Z,11.40
2022-10-21T02:59:46.911Z,11.40
2022-10-21T03:02:15.045Z,11.40
2022-10-21T03:04:44.397Z,11.40
2022-10-21T03:07:12.437Z,11.40
2022-10-21T03:09:40.382Z,11.40
2022-10-21T03:12:08.550Z,11.30
2022-10-21T03:14:36.568Z,11.30
2022-10-21T03:17:04.537Z,11.30
2022-10-21T03:19:32.598Z,11.30
2022-10-21T03:22:01.936Z,11.20
2022-10-21T03:24:29.917Z,11.30
2022-10-21T03:26:57.934Z,11.20
2022-10-21T03:29:25.978Z,11.20
2022-10-21T03:31:54.214Z,11.20
2022-10-21T03:34:22.363Z,11.20
2022-10-21T03:36:50.430Z,11.20
2022-10-21T03:39:19.803Z,11.20
2022-10-21T03:41:47.814Z,11.20
2022-10-21T03:44:15.802Z,11.20
2022-10-21T03:46:43.781Z,11.20
2022-10-21T03:49:18.377Z,11.20
2022-10-21T03:51:49.205Z,11.30
2022-10-21T03:54:19.130Z,11.30
2022-10-21T03:56:47.387Z,11.30
2022-10-21T03:59:15.514Z,11.20
2022-10-21T04:01:43.606Z,11.20
2022-10-21T04:04:11.814Z,11.20
2022-10-21T04:06:39.814Z,11.20
2022-10-21T04:09:07.947Z,11.20
2022-10-21T04:11:37.375Z,11.20
2022-10-21T04:14:05.373Z,11.20
2022-10-21T04:16:34.349Z,11.20
2022-10-21T04:19:02.423Z,11.30
2022-10-21T04:21:30.463Z,11.20
2022-10-21T04:23:58.679Z,11.20
2022-10-21T04:26:26.713Z,11.30
2022-10-21T04:28:56.061Z,11.20
2022-10-21T04:31:27.415Z,11.20
2022-10-21T04:33:57.701Z,11.20
2022-10-21T04:36:25.758Z,11.20
2022-10-21T04:38:53.754Z,11.20
2022-10-21T04:41:21.792Z,11.20
2022-10-21T04:43:49.887Z,11.20
2022-10-21T04:46:20.785Z,11.20
2022-10-21T04:48:48.908Z,11.10
2022-10-21T04:51:16.910Z,11.20
2022-10-21T04:53:44.887Z,11.30
2022-10-21T04:56:12.917Z,11.30
2022-10-21T04:58:40.907Z,11.30
2022-10-21T05:01:08.960Z,11.30
2022-10-21T05:03:38.366Z,11.30
2022-10-21T05:06:06.642Z,11.30
2022-10-21T05:08:34.738Z,11.30
2022-10-21T05:11:03.798Z,11.20
2022-10-21T05:13:33.584Z,11.10
2022-10-21T05:16:03.027Z,11.20
2022-10-21T05:18:31.741Z,11.30
2022-10-21T05:21:01.415Z,11.30
2022-10-21T05:23:29.466Z,11.30
2022-10-21T05:25:57.468Z,11.30
2022-10-21T05:28:25.623Z,11.20
2022-10-21T05:30:54.393Z,11.30
2022-10-21T05:33:22.558Z,11.30
2022-10-21T05:35:57.717Z,11.30
2022-10-21T05:38:27.213Z,11.40
2022-10-21T05:40:55.319Z,11.40
2022-10-21T05:43:23.552Z,11.60
2022-10-21T05:45:51.763Z,11.70
2022-10-21T05:48:21.065Z,11.60
2022-10-21T05:50:52.470Z,11.80
2022-10-21T05:53:20.598Z,11.70
2022-10-21T05:55:57.312Z,11.70
2022-10-21T05:58:25.932Z,11.80
2022-10-21T06:00:55.265Z,11.70
2022-10-21T06:03:23.722Z,11.60
2022-10-21T06:05:52.327Z,11.70
2022-10-21T06:08:20.423Z,11.60
2022-10-21T06:10:48.407Z,11.70
2022-10-21T06:13:17.777Z,11.70
2022-10-21T06:15:48.823Z,11.70
2022-10-21T06:18:19.035Z,11.70
2022-10-21T06:20:47.049Z,11.70
2022-10-21T06:23:16.223Z,11.80
2022-10-21T06:25:44.585Z,11.80
2022-10-21T06:28:12.711Z,11.80
2022-10-21T06:30:42.092Z,11.80
2022-10-21T06:33:10.145Z,11.70
2022-10-21T06:35:38.141Z,11.80
2022-10-21T06:38:06.154Z,11.90
2022-10-21T06:40:34.165Z,11.80
2022-10-21T06:43:02.802Z,12.00
2022-10-21T06:45:30.929Z,11.90
2022-10-21T06:48:00.305Z,12.00
2022-10-21T06:50:28.891Z,12.10
2022-10-21T06:52:56.866Z,12.10
2022-10-21T06:55:25.468Z,12.10
2022-10-21T06:57:53.773Z,12.00
2022-10-21T07:00:22.046Z,12.10
2022-10-21T07:02:50.121Z,12.20
2022-10-21T07:05:19.730Z,12.10
2022-10-21T07:07:47.776Z,12.10
2022-10-21T07:10:16.157Z,12.10
2022-10-21T07:12:44.332Z,12.20
2022-10-21T07:15:12.651Z,12.30
2022-10-21T07:17:40.911Z,12.10
2022-10-21T07:20:09.916Z,12.10
2022-10-21T07:22:39.357Z,12.00
2022-10-21T07:25:08.279Z,12.00
2022-10-21T07:27:36.558Z,12.10
2022-10-21T07:30:05.302Z,12.10
2022-10-21T07:32:33.319Z,12.10
2022-10-21T07:35:01.522Z,12.10
2022-10-21T07:37:29.589Z,12.10
2022-10-21T07:39:59.018Z,12.20
2022-10-21T07:42:28.560Z,12.20
2022-10-21T07:44:59.376Z,12.30
2022-10-21T07:47:27.579Z,12.20
2022-10-21T07:49:55.614Z,12.40
2022-10-21T07:52:23.728Z,12.40
2022-10-21T07:54:52.031Z,12.40
2022-10-21T07:57:21.446Z,12.40
2022-10-21T07:59:49.477Z,12.40
2022-10-21T08:02:17.469Z,12.40
2022-10-21T08:04:45.515Z,12.40
2022-10-21T08:07:14.044Z,12.30
2022-10-21T08:09:42.191Z,12.30
2022-10-21T08:12:12.969Z,12.30
2022-10-21T08:14:44.620Z,12.30
2022-10-21T08:17:12.649Z,12.30
2022-10-21T08:19:40.700Z,12.40
2022-10-21T08:22:09.178Z,12.40
2022-10-21T08:24:39.997Z,12.40
2022-10-21T08:27:10.374Z,12.40
2022-10-21T08:29:40.011Z,12.40
2022-10-21T08:32:09.986Z,12.50
2022-10-21T08:34:38.345Z,12.50
2022-10-21T08:37:06.367Z,12.60
2022-10-21T08:39:34.387Z,12.70
2022-10-21T08:42:08.271Z,12.80
2022-10-21T08:44:50.915Z,12.80
2022-10-21T08:47:25.873Z,13.00
2022-10-21T08:49:59.669Z,13.10
2022-10-21T08:52:38.970Z,13.20
2022-10-21T08:55:12.925Z,13.30
2022-10-21T08:57:41.401Z,13.60
2022-10-21T09:00:17.149Z,13.70
2022-10-21T09:02:59.211Z,14.10
2022-10-21T09:05:37.134Z,14.40
2022-10-21T09:08:21.286Z,14.70
2022-10-21T09:11:02.482Z,15.10
2022-10-21T09:13:49.313Z,15.40
2022-10-21T09:16:24.887Z,15.60
2022-10-21T09:19:05.446Z,15.90
2022-10-21T09:21:46.082Z,16.00
2022-10-21T09:24:20.057Z,16.00
2022-10-21T09:26:51.475Z,16.20
2022-10-21T09:29:27.510Z,16.30
2022-10-21T09:32:02.584Z,16.50
2022-10-21T09:34:41.981Z,16.60
2022-10-21T09:37:17.450Z,16.80
2022-10-21T09:39:49.627Z,16.90
2022-10-21T09:42:35.735Z,17.00
2022-10-21T09:45:07.411Z,17.10
2022-10-21T09:47:35.527Z,17.00
2022-10-21T09:50:07.720Z,17.30
2022-10-21T09:52:38.617Z,17.40
2022-10-21T09:55:12.937Z,17.50
2022-10-21T09:57:49.316Z,17.50
2022-10-21T10:00:17.441Z,17.60
2022-10-21T10:02:47.341Z,17.50
2022-10-21T10:05:36.918Z,17.50
2022-10-21T10:08:28.393Z,17.40
2022-10-21T10:11:04.297Z,17.40
2022-10-21T10:13:32.590Z,17.50
2022-10-21T10:16:24.626Z,17.40
2022-10-21T10:18:54.695Z,17.50
2022-10-21T10:21:24.360Z,17.60
2022-10-21T10:23:54.280Z,17.80
2022-10-21T10:26:27.602Z,18.20
2022-10-21T10:28:57.978Z,18.60
2022-10-21T10:31:29.775Z,19.00
2022-10-21T10:33:59.851Z,19.40
2022-10-21T10:36:32.106Z,19.80
2022-10-21T10:39:02.068Z,20.10
2022-10-21T10:41:34.781Z,20.20
2022-10-21T10:44:09.909Z,20.30
2022-10-21T10:46:39.555Z,20.20
2022-10-21T10:49:21.306Z,20.30
2022-10-21T10:52:05.887Z,20.40
2022-10-21T10:54:34.389Z,20.50
2022-10-21T10:57:06.266Z,20.60
2022-10-21T10:59:39.694Z,20.70
2022-10-21T11:02:26.627Z,20.80
2022-10-21T11:05:08.183Z,20.50
2022-10-21T11:07:44.247Z,20.50
2022-10-21T11:10:27.627Z,20.30
2022-10-21T11:12:55.698Z,20.10
2022-10-21T11:15:27.301Z,19.90
2022-10-21T11:18:17.070Z,20.00
2022-10-21T11:20:59.493Z,20.10
2022-10-21T11:23:47.155Z,20.00
2022-10-21T11:26:23.207Z,20.00
2022-10-21T11:29:04.600Z,20.10
2022-10-21T11:31:48.749Z,20.10
2022-10-21T11:34:36.115Z,20.00
2022-10-21T11:37:14.097Z,20.10
2022-10-21T11:39:53.830Z,20.00
2022-10-21T11:42:31.214Z,20.00
2022-10-21T11:45:10.793Z,20.00
2022-10-21T11:47:46.422Z,19.90
2022-10-21T11:50:24.281Z,19.90
2022-10-21T11:53:12.712Z,20.00
2022-10-21T11:55:48.704Z,20.20
2022-10-21T11:58:39.607Z,20.20
2022-10-21T12:01:30.000Z,20.20
2022-10-21T12:04:17.378Z,20.30
2022-10-21T12:06:53.375Z,20.30
2022-10-21T12:09:25.835Z,20.40
2022-10-21T12:11:59.210Z,20.30
2022-10-21T12:14:31.824Z,20.10
2022-10-21T12:17:04.334Z,20.20
2022-10-21T12:19:32.855Z,20.20
2022-10-21T12:22:01.468Z,20.20
2022-10-21T12:24:43.456Z,20.10
2022-10-21T12:27:19.380Z,20.10
2022-10-21T12:30:02.114Z,20.00
2022-10-21T12:32:36.079Z,20.00
2022-10-21T12:35:04.543Z,20.00
2022-10-21T12:38:04.378Z,19.90
2022-10-21T12:40:38.913Z,19.90
2022-10-21T12:43:19.725Z,19.70
2022-10-21T12:45:48.811Z,19.60
2022-10-21T12:48:33.874Z,19.60
2022-10-21T12:51:05.119Z,19.50
2022-10-21T12:53:41.278Z,19.40
2022-10-21T12:56:11.572Z,19.40
2022-10-21T12:58:45.198Z,19.40
2022-10-21T13:01:38.697Z,19.40
2022-10-21T13:04:30.618Z,19.40
2022-10-21T13:07:00.210Z,19.40
2022-10-21T13:09:42.977Z,19.40
2022-10-21T13:12:28.071Z,19.40
2022-10-21T13:14:58.622Z,19.40
2022-10-21T13:17:51.396Z,19.30
2022-10-21T13:20:46.308Z,19.20
2022-10-21T13:23:37.897Z,19.10
2022-10-21T13:26:12.451Z,19.10
2022-10-21T13:28:40.570Z,19.00
2022-10-21T13:31:10.227Z,19.00
2022-10-21T13:33:39.653Z,19.00
2022-10-21T13:36:12.889Z,18.90
2022-10-21T13:38:50.183Z,18.70
2022-10-21T13:41:23.866Z,18.60
2022-10-21T13:43:56.012Z,18.60
2022-10-21T13:46:28.696Z,18.70
2022-10-21T13:49:00.515Z,18.60
2022-10-21T13:51:30.015Z,18.60
2022-10-21T13:54:00.191Z,18.50
2022-10-21T13:56:31.748Z,18.50
2022-10-21T13:59:00.003Z,18.50
2022-10-21T14:01:31.124Z,18.50
2022-10-21T14:04:13.896Z,18.50
2022-10-21T14:06:49.999Z,18.50
2022-10-21T14:09:24.639Z,18.50
2022-10-21T14:11:54.898Z,18.30
2022-10-21T14:14:25.551Z,18.30
2022-10-21T14:16:58.471Z,18.10
2022-10-21T14:19:29.692Z,18.10
2022-10-21T14:22:00.489Z,18.00
2022-10-21T14:24:38.601Z,18.00
2022-10-21T14:27:07.593Z,17.90
2022-10-21T14:29:37.391Z,17.90
2022-10-21T14:32:07.279Z,17.90
2022-10-21T14:34:37.195Z,17.80
2022-10-21T14:37:19.321Z,17.80
2022-10-21T14:39:47.833Z,17.70
2022-10-21T14:42:18.091Z,17.70
2022-10-21T14:44:48.166Z,17.70
2022-10-21T14:47:24.149Z,17.70
2022-10-21T14:49:54.470Z,17.70
2022-10-21T14:52:25.667Z,17.70
2022-10-21T14:54:57.874Z,17.60
2022-10-21T14:57:39.666Z,17.60
2022-10-21T15:00:18.588Z,17.60
2022-10-21T15:02:48.094Z,17.60
2022-10-21T15:05:34.620Z,17.60
2022-10-21T15:08:29.309Z,17.60
2022-10-21T15:11:23.412Z,17.60
2022-10-21T15:14:23.833Z,17.50
2022-10-21T15:16:54.633Z,17.50
2022-10-21T15:19:26.908Z,17.40
2022-10-21T15:21:58.254Z,17.40
2022-10-21T15:24:34.210Z,17.30
2022-10-21T15:27:03.208Z,17.30
2022-10-21T15:29:36.456Z,17.20
2022-10-21T15:32:06.489Z,17.20
2022-10-21T15:34:35.888Z,17.20
2022-10-21T15:37:03.995Z,17.20
2022-10-21T15:39:31.999Z,17.20
2022-10-21T15:42:00.240Z,17.10
2022-10-21T15:44:30.426Z,17.10
2022-10-21T15:47:01.041Z,17.00
2022-10-21T15:49:32.359Z,17.00
2022-10-21T15:52:01.791Z,16.90
2022-10-21T15:54:29.829Z,16.90
2022-10-21T15:57:00.271Z,16.80
2022-10-21T15:59:29.814Z,16.90
2022-10-21T16:01:58.564Z,16.80
2022-10-21T16:04:26.961Z,16.70
2022-10-21T16:06:56.017Z,16.70
2022-10-21T16:09:27.688Z,16.60
2022-10-21T16:12:00.334Z,16.60
2022-10-21T16:14:30.856Z,16.60
2022-10-21T16:16:59.986Z,16.50
2022-10-21T16:19:28.865Z,16.50
2022-10-21T16:21:57.000Z,16.40
2022-10-21T16:24:26.441Z,16.40
2022-10-21T16:26:54.566Z,16.40
2022-10-21T16:29:24.955Z,16.30
2022-10-21T16:31:53.591Z,16.30
2022-10-21T16:34:21.623Z,16.20
2022-10-21T16:36:49.696Z,16.20
2022-10-21T16:39:24.330Z,16.20
2022-10-21T16:41:53.819Z,16.20
2022-10-21T16:44:21.822Z,16.10
2022-10-21T16:46:52.337Z,16.10
2022-10-21T16:49:23.545Z,16.10
2022-10-21T16:51:53.087Z,16.10
2022-10-21T16:54:22.612Z,16.10
2022-10-21T16:56:53.351Z,16.10
2022-10-21T16:59:24.958Z,16.10
2022-10-21T17:01:53.126Z,16.00
2022-10-21T17:04:21.187Z,16.00
2022-10-21T17:06:49.670Z,16.00
2022-10-21T17:09:17.842Z,16.10
2022-10-21T17:11:46.377Z,16.10
2022-10-21T17:14:18.003Z,16.00
2022-10-21T17:16:47.824Z,16.00
2022-10-21T17:19:15.958Z,16.00
2022-10-21T17:21:44.766Z,16.00
2022-10-21T17:24:16.055Z,15.90
2022-10-21T17:26:44.345Z,15.90
2022-10-21T17:29:12.815Z,16.00
2022-10-21T17:31:42.609Z,16.00
2022-10-21T17:34:24.016Z,16.00
2022-10-21T17:36:51.997Z,16.00
2022-10-21T17:39:20.006Z,16.00
2022-10-21T17:44:21.656Z,16.00
2022-10-21T17:46:54.220Z,16.00
2022-10-21T17:49:24.426Z,15.90
2022-10-21T17:51:52.940Z,15.90
2022-10-21T17:54:24.196Z,15.90
2022-10-21T17:56:56.690Z,16.00
2022-10-21T17:59:24.973Z,16.00
2022-10-21T18:01:53.122Z,15.90
2022-10-21T18:04:21.186Z,15.90
2022-10-21T18:06:50.643Z,15.90
2022-10-21T18:09:19.009Z,15.90
2022-10-21T18:11:47.112Z,15.90
2022-10-21T18:14:15.254Z,15.90
2022-10-21T18:16:43.306Z,15.90
2022-10-21T18:19:12.060Z,16.00
2022-10-21T18:21:40.263Z,15.90
2022-10-21T18:24:12.466Z,15.90
2022-10-21T18:26:40.947Z,15.90
2022-10-21T18:29:08.982Z,15.90
2022-10-21T18:31:38.384Z,15.90
2022-10-21T18:34:09.185Z,15.90
2022-10-21T18:36:37.287Z,15.90
2022-10-21T18:39:06.565Z,15.90
2022-10-21T18:41:36.619Z,15.80
2022-10-21T18:44:08.226Z,15.80
2022-10-21T18:46:37.602Z,15.80
2022-10-21T18:49:07.775Z,15.80
2022-10-21T18:51:35.894Z,15.80
2022-10-21T18:54:04.093Z,15.80
2022-10-21T18:56:32.333Z,15.80
2022-10-21T18:59:01.698Z,15.70
2022-10-21T19:01:29.749Z,15.80
2022-10-21T19:03:57.924Z,15.80
2022-10-21T19:06:36.906Z,15.80
2022-10-21T19:09:08.957Z,15.70
2022-10-21T19:11:37.050Z,15.80
2022-10-21T19:14:09.621Z,15.80
2022-10-21T19:16:40.942Z,15.90
2022-10-21T19:19:09.391Z,15.80
2022-10-21T19:21:37.502Z,15.70
2022-10-21T19:24:06.135Z,15.70
2022-10-21T19:26:35.844Z,15.70
2022-10-21T19:29:07.530Z,15.70
2022-10-21T19:31:37.705Z,15.80
2022-10-21T19:34:06.609Z,15.70
2022-10-21T19:36:35.026Z,15.70
2022-10-21T19:39:03.093Z,15.60
2022-10-21T19:41:31.137Z,15.70
2022-10-21T19:43:59.679Z,15.70
2022-10-21T19:46:31.033Z,15.60
2022-10-21T19:49:01.461Z,15.70
2022-10-21T19:51:29.521Z,15.60
2022-10-21T19:53:57.767Z,15.70
2022-10-21T19:56:29.592Z,15.60
2022-10-21T19:58:59.178Z,15.60
2022-10-21T20:01:28.934Z,15.60
2022-10-21T20:03:57.280Z,15.60
2022-10-21T20:06:26.929Z,15.60
2022-10-21T20:08:55.841Z,15.50
2022-10-21T20:11:24.049Z,15.60
2022-10-21T20:13:52.833Z,15.50
2022-10-21T20:16:22.497Z,15.40
2022-10-21T20:18:52.327Z,15.40
2022-10-21T20:21:20.787Z,15.40
2022-10-21T20:23:49.583Z,15.40
2022-10-21T20:26:17.892Z,15.50
2022-10-21T20:28:46.038Z,15.60
2022-10-21T20:31:16.373Z,15.50
2022-10-21T20:33:46.932Z,15.40
2022-10-21T20:36:18.368Z,15.30
2022-10-21T20:38:46.927Z,15.30
2022-10-21T20:41:18.043Z,15.30
2022-10-21T20:43:46.487Z,15.30
2022-10-21T20:46:17.228Z,15.20
2022-10-21T20:48:47.055Z,15.20
2022-10-21T20:51:18.840Z,15.30
2022-10-21T20:56:21.929Z,15.10
2022-10-21T20:58:50.349Z,15.10
2022-10-21T21:01:22.292Z,15.10
2022-10-21T21:03:53.874Z,15.10
2022-10-21T21:06:23.957Z,15.10
2022-10-21T21:09:22.126Z,15.10
2022-10-21T21:11:41.042Z,15.10
2022-10-21T21:14:09.076Z,15.20
2022-10-21T21:16:37.133Z,15.20
2022-10-21T21:19:07.629Z,15.20
2022-10-21T21:21:37.417Z,15.20
2022-10-21T21:24:06.314Z,15.30
2022-10-21T21:26:36.344Z,15.30
2022-10-21T21:29:06.669Z,15.40
2022-10-21T21:31:35.663Z,15.40
2022-10-21T21:34:04.594Z,15.50
2022-10-21T21:36:32.886Z,15.60
2022-10-21T21:39:02.661Z,15.60
2022-10-21T21:41:31.148Z,15.60
2022-10-21T21:43:59.484Z,15.60
2022-10-21T21:46:28.183Z,15.60
2022-10-21T21:49:00.926Z,15.70
2022-10-21T21:51:32.966Z,15.70
2022-10-21T21:54:04.802Z,15.70
2022-10-21T21:56:33.167Z,15.50
2022-10-21T21:59:03.440Z,15.40
2022-10-21T22:01:31.886Z,15.40
2022-10-21T22:04:04.096Z,15.40
2022-10-21T22:06:34.599Z,15.50
2022-10-21T22:09:09.908Z,15.50
2022-10-21T22:11:38.989Z,15.50
2022-10-21T22:14:07.378Z,15.50
2022-10-21T22:16:35.838Z,15.50
2022-10-21T22:19:04.771Z,15.40
2022-10-21T22:21:33.678Z,15.40
2022-10-21T22:24:06.763Z,15.50
2022-10-21T22:26:36.171Z,15.40
2022-10-21T22:29:04.759Z,15.60
2022-10-21T22:31:33.057Z,15.60
2022-10-21T22:34:04.309Z,15.60
2022-10-21T22:36:34.854Z,15.50
2022-10-21T22:39:04.826Z,15.60
2022-10-21T22:41:33.086Z,15.50
2022-10-21T22:44:01.581Z,15.50
2022-10-21T22:46:34.178Z,15.50
2022-10-21T22:49:03.934Z,15.40
2022-10-21T22:51:32.677Z,15.40
2022-10-21T22:54:01.445Z,15.40
2022-10-21T22:56:32.042Z,15.30
2022-10-21T22:59:01.020Z,15.30
2022-10-21T23:01:32.646Z,15.30
2022-10-21T23:04:03.260Z,15.30
2022-10-21T23:06:31.906Z,15.30
2022-10-21T23:09:01.772Z,15.40
2022-10-21T23:11:31.880Z,15.40
2022-10-21T23:14:08.437Z,15.40
2022-10-21T23:16:38.320Z,15.50
2022-10-21T23:19:07.008Z,15.40
2022-10-21T23:21:35.483Z,15.40
2022-10-21T23:24:04.131Z,15.50
2022-10-21T23:26:33.790Z,15.50
2022-10-21T23:29:02.355Z,15.40
2022-10-21T23:31:30.764Z,15.40
2022-10-21T23:33:59.300Z,15.40
2022-10-21T23:36:27.810Z,15.40
2022-10-21T23:38:57.266Z,15.40
2022-10-21T23:41:26.906Z,15.40
2022-10-21T23:43:56.408Z,15.50
2022-10-21T23:46:24.677Z,15.50
2022-10-21T23:48:52.734Z,15.40
2022-10-21T23:51:21.683Z,15.40
2022-10-21T23:53:49.695Z,15.30
2022-10-21T23:56:18.000Z,15.20
2022-10-21T23:58:45.990Z,15.30
